Time;durP1;ratioP1;P1;durP2;ratioP2;P2;SDS_P1;SDS_P2;PMS_P1;PMS_P2;Temp;Humidity;BMP_temperature;BMP_pressure;BME280_temperature;BME280_humidity;BME280_pressure;Samples;Min_cycle;Max_cycle;Signal;HPM_P1;HPM_P2
2023/08/16 00:00:03;;;;;;;3.22;2.88;;;;;;;;;;5079257;28;20384;-84
2023/08/16 00:02:29;;;;;;;4.00;3.13;;;;;;;;;;5099256;28;20381;-84
2023/08/16 00:04:55;;;;;;;3.40;3.10;;;;;;;;;;5086960;28;20384;-83
2023/08/16 00:07:21;;;;;;;3.30;3.00;;;;;;;;;;5087435;28;20922;-84
2023/08/16 00:09:47;;;;;;;3.08;2.72;;;;;;;;;;5079443;28;20372;-84
2023/08/16 00:12:13;;;;;;;3.42;3.13;;;;;;;;;;5089360;28;20388;-84
2023/08/16 00:14:39;;;;;;;3.13;2.83;;;;;;;;;;5079475;28;20418;-84
2023/08/16 00:17:05;;;;;;;3.17;2.90;;;;;;;;;;5094355;28;20409;-84
2023/08/16 00:19:31;;;;;;;3.33;2.90;;;;;;;;;;5092919;28;20380;-84
2023/08/16 00:21:57;;;;;;;2.90;2.70;;;;;;;;;;5079862;28;20383;-84
2023/08/16 00:24:23;;;;;;;2.90;2.60;;;;;;;;;;5099081;28;20382;-84
2023/08/16 00:26:49;;;;;;;3.00;2.80;;;;;;;;;;5108180;28;21042;-84
2023/08/16 00:29:15;;;;;;;3.22;2.92;;;;;;;;;;5095592;28;20433;-84
2023/08/16 00:31:41;;;;;;;4.10;2.83;;;;;;;;;;5086883;28;20492;-84
2023/08/16 00:34:07;;;;;;;4.70;2.72;;;;;;;;;;5082066;28;20450;-84
2023/08/16 00:36:33;;;;;;;3.25;2.95;;;;;;;;;;5086279;28;20387;-84
2023/08/16 00:38:59;;;;;;;3.25;2.88;;;;;;;;;;5085354;28;20467;-84
2023/08/16 00:41:25;;;;;;;3.00;2.75;;;;;;;;;;5078048;28;20380;-84
2023/08/16 00:43:51;;;;;;;2.75;2.55;;;;;;;;;;5085173;28;20823;-84
2023/08/16 00:46:18;;;;;;;3.00;2.70;;;;;;;;;;5098430;28;20432;-84
2023/08/16 00:48:44;;;;;;;3.15;2.85;;;;;;;;;;5097397;28;20460;-83
2023/08/16 00:51:11;;;;;;;2.90;2.70;;;;;;;;;;5097174;28;20386;-84
2023/08/16 00:53:39;;;;;;;3.80;2.85;;;;;;;;;;5097860;28;20385;-84
2023/08/16 00:56:05;;;;;;;4.07;2.83;;;;;;;;;;5088114;28;20387;-84
2023/08/16 00:58:32;;;;;;;4.20;3.10;;;;;;;;;;5080936;28;20392;-84
2023/08/16 01:00:58;;;;;;;3.67;2.88;;;;;;;;;;5089358;28;20812;-84
2023/08/16 01:03:24;;;;;;;3.30;2.80;;;;;;;;;;5092129;28;20388;-84
2023/08/16 01:05:50;;;;;;;3.60;3.25;;;;;;;;;;5096910;28;20402;-84
2023/08/16 01:08:16;;;;;;;3.03;2.72;;;;;;;;;;5077386;28;20463;-84
2023/08/16 01:10:45;;;;;;;3.67;2.80;;;;;;;;;;5082170;28;20457;-84
2023/08/16 01:13:14;;;;;;;3.05;2.78;;;;;;;;;;5098093;28;20434;-84
2023/08/16 01:15:42;;;;;;;3.03;2.83;;;;;;;;;;5097585;28;20385;-84
2023/08/16 01:18:09;;;;;;;3.42;2.83;;;;;;;;;;5098002;28;20382;-83
2023/08/16 01:20:37;;;;;;;3.30;3.00;;;;;;;;;;5085521;28;20399;-84
2023/08/16 01:23:07;;;;;;;3.90;3.08;;;;;;;;;;5091287;28;20414;-84
2023/08/16 01:25:51;;;;;;;3.50;3.20;;;;;;;;;;5088131;28;20417;-83
2023/08/16 01:28:17;;;;;;;3.73;3.10;;;;;;;;;;5098455;28;20382;-83
2023/08/16 01:30:45;;;;;;;3.55;3.25;;;;;;;;;;5097855;28;20751;-84
2023/08/16 01:33:11;;;;;;;3.50;3.20;;;;;;;;;;5083263;28;20431;-84
2023/08/16 01:35:38;;;;;;;3.40;2.90;;;;;;;;;;5093772;28;20444;-84
2023/08/16 01:38:05;;;;;;;3.90;3.17;;;;;;;;;;5086105;28;20447;-83
2023/08/16 01:40:33;;;;;;;3.78;3.45;;;;;;;;;;5092190;28;20388;-83
2023/08/16 01:42:59;;;;;;;4.15;3.08;;;;;;;;;;5072974;28;20398;-84
2023/08/16 01:45:25;;;;;;;3.37;3.07;;;;;;;;;;5092428;28;20476;-83
2023/08/16 01:47:52;;;;;;;3.37;3.10;;;;;;;;;;5088129;28;20393;-84
2023/08/16 01:50:18;;;;;;;5.00;3.17;;;;;;;;;;5079011;28;20837;-84
2023/08/16 01:52:44;;;;;;;3.50;3.10;;;;;;;;;;5077075;28;20792;-84
2023/08/16 01:55:10;;;;;;;3.67;3.38;;;;;;;;;;5079677;28;20411;-84
2023/08/16 01:57:36;;;;;;;3.13;2.90;;;;;;;;;;5098277;28;20382;-84
2023/08/16 02:00:03;;;;;;;3.90;3.05;;;;;;;;;;5078612;28;20753;-83
2023/08/16 02:02:29;;;;;;;3.28;2.90;;;;;;;;;;5079926;28;20385;-84
2023/08/16 02:04:55;;;;;;;3.92;3.08;;;;;;;;;;5076434;28;20383;-84
2023/08/16 02:07:21;;;;;;;4.13;3.17;;;;;;;;;;5083891;28;20457;-84
2023/08/16 02:09:47;;;;;;;3.15;2.90;;;;;;;;;;5076673;28;20390;-83
2023/08/16 02:12:13;;;;;;;3.25;3.03;;;;;;;;;;5079856;28;20383;-83
2023/08/16 02:14:39;;;;;;;3.05;2.85;;;;;;;;;;5069139;28;20390;-84
2023/08/16 02:17:05;;;;;;;3.30;3.10;;;;;;;;;;5080099;28;20411;-84
2023/08/16 02:19:31;;;;;;;3.60;3.30;;;;;;;;;;5076947;28;20391;-83
2023/08/16 02:21:57;;;;;;;3.10;2.90;;;;;;;;;;5077140;28;20402;-84
2023/08/16 02:24:23;;;;;;;3.00;2.80;;;;;;;;;;5086787;28;20488;-84
2023/08/16 02:26:49;;;;;;;3.00;2.70;;;;;;;;;;5100613;28;20402;-83
2023/08/16 02:29:15;;;;;;;3.50;3.20;;;;;;;;;;5099428;28;20404;-84
2023/08/16 02:31:44;;;;;;;3.30;3.10;;;;;;;;;;5089796;28;20376;-84
2023/08/16 02:34:10;;;;;;;3.50;3.20;;;;;;;;;;5080363;28;20376;-84
2023/08/16 02:36:36;;;;;;;3.80;3.10;;;;;;;;;;5088592;28;20382;-84
2023/08/16 02:39:02;;;;;;;4.07;3.20;;;;;;;;;;5085064;28;20378;-83
2023/08/16 02:41:28;;;;;;;3.97;3.57;;;;;;;;;;5094223;28;20390;-84
2023/08/16 02:43:55;;;;;;;3.72;3.28;;;;;;;;;;5088022;28;20499;-84
2023/08/16 02:46:21;;;;;;;3.53;3.22;;;;;;;;;;5093479;28;20450;-84
2023/08/16 02:48:47;;;;;;;3.70;3.30;;;;;;;;;;5084452;28;20418;-83
2023/08/16 02:51:13;;;;;;;3.30;3.10;;;;;;;;;;5082008;28;20398;-84
2023/08/16 02:53:39;;;;;;;3.55;3.25;;;;;;;;;;5094485;28;20386;-84
2023/08/16 02:56:05;;;;;;;3.90;3.50;;;;;;;;;;5082102;28;20852;-84
2023/08/16 02:58:31;;;;;;;3.47;3.00;;;;;;;;;;5096640;28;20436;-84
2023/08/16 03:00:57;;;;;;;5.90;3.17;;;;;;;;;;5100141;28;20378;-83
2023/08/16 03:03:23;;;;;;;3.40;3.20;;;;;;;;;;5100650;28;20416;-83
2023/08/16 03:05:49;;;;;;;3.50;3.20;;;;;;;;;;5099875;28;20463;-83
2023/08/16 03:08:15;;;;;;;3.50;3.20;;;;;;;;;;5083394;28;20431;-83
2023/08/16 03:10:41;;;;;;;3.97;3.10;;;;;;;;;;5080173;28;20372;-83
2023/08/16 03:13:08;;;;;;;3.40;3.10;;;;;;;;;;5094038;28;20379;-83
2023/08/16 03:15:34;;;;;;;3.35;3.15;;;;;;;;;;5079749;28;20464;-83
2023/08/16 03:18:00;;;;;;;3.38;3.10;;;;;;;;;;5080446;28;20445;-83
2023/08/16 03:20:26;;;;;;;3.73;3.43;;;;;;;;;;5075610;28;20388;-83
2023/08/16 03:22:52;;;;;;;3.35;3.05;;;;;;;;;;5090953;28;20414;-82
2023/08/16 03:25:18;;;;;;;3.40;3.15;;;;;;;;;;5100954;28;20390;-84
2023/08/16 03:27:44;;;;;;;3.63;3.35;;;;;;;;;;5095278;28;20526;-84
2023/08/16 03:30:11;;;;;;;3.60;3.30;;;;;;;;;;5085628;28;20407;-83
2023/08/16 03:32:37;;;;;;;4.30;4.00;;;;;;;;;;5079821;28;20390;-83
2023/08/16 03:35:04;;;;;;;4.97;3.97;;;;;;;;;;5079421;28;20419;-83
2023/08/16 03:37:31;;;;;;;3.90;3.50;;;;;;;;;;5093413;28;20435;-83
2023/08/16 03:39:57;;;;;;;3.95;3.65;;;;;;;;;;5090813;28;20431;-83
2023/08/16 03:42:23;;;;;;;3.53;3.33;;;;;;;;;;5089730;28;20414;-84
2023/08/16 03:44:49;;;;;;;4.43;3.60;;;;;;;;;;5087963;28;20382;-83
2023/08/16 03:47:15;;;;;;;3.45;3.15;;;;;;;;;;5091272;28;20423;-83
2023/08/16 03:49:44;;;;;;;3.80;3.42;;;;;;;;;;5080208;28;20429;-83
2023/08/16 03:52:10;;;;;;;4.47;3.80;;;;;;;;;;5077996;28;20392;-82
2023/08/16 03:54:36;;;;;;;3.80;3.50;;;;;;;;;;5085609;28;20392;-82
2023/08/16 03:57:02;;;;;;;4.00;3.60;;;;;;;;;;5095198;28;20391;-82
2023/08/16 03:59:29;;;;;;;4.60;3.93;;;;;;;;;;5098220;28;20392;-85
2023/08/16 04:01:55;;;;;;;3.70;3.40;;;;;;;;;;5094072;28;20387;-82
2023/08/16 04:04:21;;;;;;;4.40;3.90;;;;;;;;;;5094342;28;20390;-82
2023/08/16 04:06:47;;;;;;;3.63;3.33;;;;;;;;;;5091641;28;20801;-83
2023/08/16 04:09:14;;;;;;;3.67;3.35;;;;;;;;;;5089663;28;20386;-83
2023/08/16 04:11:40;;;;;;;3.92;3.63;;;;;;;;;;5086821;28;20378;-83
2023/08/16 04:14:06;;;;;;;4.15;3.83;;;;;;;;;;5097984;28;20414;-84
2023/08/16 04:16:32;;;;;;;3.78;3.50;;;;;;;;;;5095510;28;20393;-84
2023/08/16 04:18:58;;;;;;;3.97;3.67;;;;;;;;;;5079971;28;20424;-83
2023/08/16 04:21:24;;;;;;;3.90;3.50;;;;;;;;;;5079123;28;20402;-84
2023/08/16 04:23:50;;;;;;;3.63;3.30;;;;;;;;;;5078231;28;20840;-83
2023/08/16 04:26:16;;;;;;;3.40;3.10;;;;;;;;;;5087498;28;20426;-83
2023/08/16 04:28:42;;;;;;;3.58;3.35;;;;;;;;;;5079844;28;21177;-83
2023/08/16 04:31:08;;;;;;;3.87;3.57;;;;;;;;;;5071624;28;20394;-83
2023/08/16 04:33:34;;;;;;;3.50;3.27;;;;;;;;;;5084010;28;20768;-83
2023/08/16 04:35:59;;;;;;;4.43;3.40;;;;;;;;;;5081181;28;20388;-83
2023/08/16 04:38:25;;;;;;;4.00;3.70;;;;;;;;;;5079003;28;20404;-83
2023/08/16 04:40:52;;;;;;;3.78;3.47;;;;;;;;;;5091596;28;20443;-83
2023/08/16 04:43:19;;;;;;;4.77;4.13;;;;;;;;;;5080654;28;20471;-83
2023/08/16 04:45:45;;;;;;;4.30;3.45;;;;;;;;;;5079528;28;20411;-84
2023/08/16 04:48:11;;;;;;;4.10;3.70;;;;;;;;;;5079720;28;20396;-84
2023/08/16 04:50:37;;;;;;;3.60;3.35;;;;;;;;;;5083770;28;20378;-83
2023/08/16 04:53:03;;;;;;;4.00;3.60;;;;;;;;;;5080250;28;20429;-83
2023/08/16 04:55:29;;;;;;;3.30;3.00;;;;;;;;;;5081665;28;20417;-83
2023/08/16 04:57:55;;;;;;;4.35;3.65;;;;;;;;;;5095755;28;20377;-84
2023/08/16 05:00:22;;;;;;;3.67;3.38;;;;;;;;;;5092786;28;20388;-83
2023/08/16 05:02:48;;;;;;;4.30;3.90;;;;;;;;;;5091050;28;20391;-83
2023/08/16 05:05:14;;;;;;;3.75;3.40;;;;;;;;;;5079364;28;20387;-83
2023/08/16 05:07:40;;;;;;;3.80;3.50;;;;;;;;;;5077423;28;20384;-83
2023/08/16 05:10:06;;;;;;;7.80;3.50;;;;;;;;;;5090573;28;20470;-83
2023/08/16 05:12:32;;;;;;;4.60;3.72;;;;;;;;;;5076714;28;20461;-83
2023/08/16 05:14:58;;;;;;;4.68;3.50;;;;;;;;;;5091875;28;20860;-83
2023/08/16 05:17:24;;;;;;;3.92;3.63;;;;;;;;;;5097191;28;20370;-83
2023/08/16 05:19:50;;;;;;;3.97;3.50;;;;;;;;;;5097663;28;20810;-83
2023/08/16 05:22:16;;;;;;;3.77;3.47;;;;;;;;;;5091762;28;20801;-83
2023/08/16 05:24:42;;;;;;;3.60;3.40;;;;;;;;;;5089033;28;20386;-83
2023/08/16 05:27:12;;;;;;;3.75;3.45;;;;;;;;;;5096074;28;20410;-83
2023/08/16 05:29:39;;;;;;;5.50;4.55;;;;;;;;;;5087316;28;20399;-84
2023/08/16 05:32:05;;;;;;;5.17;3.70;;;;;;;;;;5080817;28;20384;-84
2023/08/16 05:34:31;;;;;;;3.97;3.58;;;;;;;;;;5099116;28;20370;-83
2023/08/16 05:36:57;;;;;;;4.25;3.95;;;;;;;;;;5082781;28;20426;-83
2023/08/16 05:39:24;;;;;;;4.03;3.63;;;;;;;;;;5079148;28;20706;-83
2023/08/16 05:41:50;;;;;;;4.10;3.70;;;;;;;;;;5084827;28;20463;-84
2023/08/16 05:44:16;;;;;;;4.17;3.70;;;;;;;;;;5079776;28;20558;-84
2023/08/16 05:46:42;;;;;;;4.00;3.60;;;;;;;;;;5077109;28;20845;-84
2023/08/16 05:49:08;;;;;;;3.63;3.30;;;;;;;;;;5074266;28;20401;-84
2023/08/16 05:51:34;;;;;;;4.70;3.80;;;;;;;;;;5079135;28;20388;-83
2023/08/16 05:54:01;;;;;;;4.30;3.90;;;;;;;;;;5088346;28;20373;-83
2023/08/16 05:56:27;;;;;;;3.60;3.30;;;;;;;;;;5079818;28;21236;-82
2023/08/16 05:58:53;;;;;;;4.90;3.70;;;;;;;;;;5091657;28;20384;-83
2023/08/16 06:01:19;;;;;;;4.35;3.53;;;;;;;;;;5081870;28;20379;-82
2023/08/16 06:03:46;;;;;;;4.25;3.63;;;;;;;;;;5090127;28;20481;-82
2023/08/16 06:06:12;;;;;;;3.83;3.53;;;;;;;;;;5086492;28;20472;-82
2023/08/16 06:08:38;;;;;;;3.55;3.25;;;;;;;;;;5082002;28;20394;-82
2023/08/16 06:11:04;;;;;;;3.97;3.60;;;;;;;;;;5081893;28;20379;-82
2023/08/16 06:13:30;;;;;;;3.95;3.65;;;;;;;;;;5086124;28;20374;-82
2023/08/16 06:15:56;;;;;;;4.77;3.70;;;;;;;;;;5090732;28;20465;-83
2023/08/16 06:18:22;;;;;;;4.40;3.80;;;;;;;;;;5098799;28;20392;-82
2023/08/16 06:20:48;;;;;;;3.90;3.60;;;;;;;;;;5090013;28;20411;-82
2023/08/16 06:23:15;;;;;;;3.80;3.58;;;;;;;;;;5086877;28;20779;-82
2023/08/16 06:25:41;;;;;;;4.38;3.67;;;;;;;;;;5096866;28;20426;-82
2023/08/16 06:28:07;;;;;;;4.60;4.00;;;;;;;;;;5085292;28;20375;-81
2023/08/16 06:30:33;;;;;;;4.95;3.50;;;;;;;;;;5081352;28;20406;-83
2023/08/16 06:32:59;;;;;;;4.40;3.47;;;;;;;;;;5086011;28;20383;-82
2023/08/16 06:35:25;;;;;;;3.95;3.50;;;;;;;;;;5087789;28;20392;-82
2023/08/16 06:37:51;;;;;;;3.77;3.30;;;;;;;;;;5089198;28;20478;-82
2023/08/16 06:40:17;;;;;;;4.27;3.43;;;;;;;;;;5087677;28;20861;-82
2023/08/16 06:42:43;;;;;;;5.35;3.42;;;;;;;;;;5084569;28;20388;-82
2023/08/16 06:45:09;;;;;;;3.72;3.42;;;;;;;;;;5077412;28;20397;-82
2023/08/16 06:47:35;;;;;;;3.75;3.45;;;;;;;;;;5081699;28;20948;-82
2023/08/16 06:50:01;;;;;;;4.68;3.60;;;;;;;;;;5081919;28;20784;-81
2023/08/16 06:52:28;;;;;;;5.22;3.90;;;;;;;;;;5090902;28;21170;-81
2023/08/16 06:54:54;;;;;;;3.50;3.20;;;;;;;;;;5080468;28;20454;-81
2023/08/16 06:57:20;;;;;;;3.72;3.42;;;;;;;;;;5080315;28;20395;-81
2023/08/16 06:59:46;;;;;;;4.22;3.83;;;;;;;;;;5083261;28;20459;-81
2023/08/16 07:02:14;;;;;;;5.78;3.70;;;;;;;;;;5080736;28;20403;-81
2023/08/16 07:04:42;;;;;;;4.68;3.65;;;;;;;;;;5080657;28;20379;-82
2023/08/16 07:07:08;;;;;;;5.47;4.07;;;;;;;;;;5081302;28;20419;-81
2023/08/16 07:09:34;;;;;;;6.82;3.53;;;;;;;;;;5076245;28;20397;-82
2023/08/16 07:12:00;;;;;;;6.90;3.85;;;;;;;;;;5090835;28;20384;-82
2023/08/16 07:14:26;;;;;;;5.18;3.85;;;;;;;;;;5083051;28;20391;-82
2023/08/16 07:16:52;;;;;;;5.13;3.90;;;;;;;;;;5093152;28;20394;-83
2023/08/16 07:19:18;;;;;;;4.80;4.30;;;;;;;;;;5092314;28;20416;-82
2023/08/16 07:21:44;;;;;;;5.65;3.90;;;;;;;;;;5092792;28;20396;-82
2023/08/16 07:24:10;;;;;;;5.10;3.50;;;;;;;;;;5087209;28;20373;-82
2023/08/16 07:26:38;;;;;;;4.10;3.67;;;;;;;;;;5097342;28;20406;-83
2023/08/16 07:29:04;;;;;;;4.70;3.50;;;;;;;;;;5095559;28;20391;-83
2023/08/16 07:31:30;;;;;;;7.97;3.55;;;;;;;;;;5080103;28;20405;-82
2023/08/16 07:33:55;;;;;;;5.20;3.40;;;;;;;;;;5080804;28;20411;-83
2023/08/16 07:36:22;;;;;;;4.05;3.65;;;;;;;;;;5081274;28;20390;-83
2023/08/16 07:38:48;;;;;;;4.35;3.70;;;;;;;;;;5097854;28;20446;-83
2023/08/16 07:41:15;;;;;;;3.85;3.50;;;;;;;;;;5091885;28;20423;-83
2023/08/16 07:43:41;;;;;;;4.00;3.60;;;;;;;;;;5081254;28;20436;-83
2023/08/16 07:46:07;;;;;;;4.07;3.67;;;;;;;;;;5095812;28;20400;-83
2023/08/16 07:48:33;;;;;;;4.10;3.72;;;;;;;;;;5080655;28;20887;-83
2023/08/16 07:50:59;;;;;;;4.75;3.72;;;;;;;;;;5078592;28;20413;-83
2023/08/16 07:53:25;;;;;;;4.63;3.85;;;;;;;;;;5082042;28;20859;-83
2023/08/16 07:55:52;;;;;;;4.78;3.40;;;;;;;;;;5081876;28;20410;-83
2023/08/16 07:58:18;;;;;;;8.40;3.97;;;;;;;;;;5076220;28;20492;-83
2023/08/16 08:00:46;;;;;;;4.97;3.93;;;;;;;;;;5077686;28;20490;-83
2023/08/16 08:03:12;;;;;;;4.30;3.90;;;;;;;;;;5077881;28;20841;-83
2023/08/16 08:05:38;;;;;;;4.53;3.77;;;;;;;;;;5077605;28;20414;-83
2023/08/16 08:08:06;;;;;;;4.40;3.70;;;;;;;;;;5084893;28;20756;-83
2023/08/16 08:10:32;;;;;;;4.63;4.03;;;;;;;;;;5094772;28;20376;-83
2023/08/16 08:12:58;;;;;;;4.13;3.72;;;;;;;;;;5081754;28;20413;-83
2023/08/16 08:15:24;;;;;;;4.35;3.80;;;;;;;;;;5078800;28;20394;-83
2023/08/16 08:17:50;;;;;;;4.10;3.70;;;;;;;;;;5081321;28;20383;-83
2023/08/16 08:20:16;;;;;;;4.93;3.92;;;;;;;;;;5091696;28;20374;-83
2023/08/16 08:22:43;;;;;;;4.23;3.23;;;;;;;;;;5080740;28;20425;-83
2023/08/16 08:25:09;;;;;;;3.90;3.50;;;;;;;;;;5091058;28;20382;-83
2023/08/16 08:27:36;;;;;;;4.38;3.50;;;;;;;;;;5097934;28;20898;-83
2023/08/16 08:30:03;;;;;;;4.75;3.65;;;;;;;;;;5098825;28;20382;-83
2023/08/16 08:32:29;;;;;;;5.53;3.88;;;;;;;;;;5081957;28;20455;-84
2023/08/16 08:34:55;;;;;;;7.80;3.80;;;;;;;;;;5064684;28;20398;-84
2023/08/16 08:37:21;;;;;;;6.80;3.90;;;;;;;;;;5079317;28;20394;-84
2023/08/16 08:39:47;;;;;;;4.33;3.80;;;;;;;;;;5083848;28;20394;-84
2023/08/16 08:42:13;;;;;;;5.80;3.73;;;;;;;;;;5063859;28;20430;-84
2023/08/16 08:44:39;;;;;;;5.37;3.67;;;;;;;;;;5065037;28;20402;-84
2023/08/16 08:47:07;;;;;;;4.78;3.85;;;;;;;;;;5097728;28;20406;-84
2023/08/16 08:49:37;;;;;;;6.22;4.07;;;;;;;;;;5080431;28;20399;-83
2023/08/16 08:52:04;;;;;;;4.95;4.35;;;;;;;;;;5086713;28;20424;-83
2023/08/16 08:54:30;;;;;;;5.75;4.05;;;;;;;;;;5079614;28;20455;-84
2023/08/16 08:56:57;;;;;;;4.78;4.00;;;;;;;;;;5077553;28;20384;-84
2023/08/16 08:59:23;;;;;;;5.50;3.90;;;;;;;;;;5077716;28;20388;-84
2023/08/16 09:01:50;;;;;;;4.87;3.97;;;;;;;;;;5093381;28;20468;-84
2023/08/16 09:04:17;;;;;;;5.85;4.00;;;;;;;;;;5084930;28;20384;-84
2023/08/16 09:06:44;;;;;;;4.20;3.80;;;;;;;;;;5093028;28;20515;-84
2023/08/16 09:09:10;;;;;;;4.45;4.03;;;;;;;;;;5087026;28;20712;-84
2023/08/16 09:11:36;;;;;;;4.63;3.78;;;;;;;;;;5082343;28;20414;-84
2023/08/16 09:14:03;;;;;;;4.70;4.07;;;;;;;;;;5078676;28;20386;-84
2023/08/16 09:16:29;;;;;;;4.85;3.97;;;;;;;;;;5079476;28;20763;-84
2023/08/16 09:18:56;;;;;;;4.60;4.20;;;;;;;;;;5079446;28;20394;-84
2023/08/16 09:21:27;;;;;;;4.60;4.10;;;;;;;;;;5091967;28;20420;-84
2023/08/16 09:24:00;;;;;;;4.25;3.70;;;;;;;;;;5078804;28;20380;-84
2023/08/16 09:26:29;;;;;;;5.35;4.10;;;;;;;;;;5079464;28;20422;-84
2023/08/16 09:28:56;;;;;;;5.32;3.70;;;;;;;;;;5093774;28;20883;-84
2023/08/16 09:31:22;;;;;;;4.13;3.72;;;;;;;;;;5090258;28;20378;-83
2023/08/16 09:33:54;;;;;;;6.35;3.90;;;;;;;;;;5085651;28;20419;-83
2023/08/16 09:36:20;;;;;;;5.35;4.00;;;;;;;;;;5093376;28;20387;-84
2023/08/16 09:38:47;;;;;;;4.45;4.05;;;;;;;;;;5094195;28;20912;-84
2023/08/16 09:41:15;;;;;;;6.88;3.90;;;;;;;;;;5095165;28;20442;-83
2023/08/16 09:43:41;;;;;;;8.07;4.30;;;;;;;;;;5091116;28;20418;-83
2023/08/16 09:46:07;;;;;;;4.18;3.55;;;;;;;;;;5094607;28;20463;-84
2023/08/16 09:48:33;;;;;;;5.15;3.80;;;;;;;;;;5080717;28;20422;-84
2023/08/16 09:51:01;;;;;;;4.72;4.00;;;;;;;;;;5098739;28;20388;-84
2023/08/16 09:53:27;;;;;;;4.60;3.80;;;;;;;;;;5095465;28;20385;-85
2023/08/16 09:55:54;;;;;;;4.50;3.63;;;;;;;;;;5082648;28;20485;-85
2023/08/16 09:58:20;;;;;;;4.05;3.75;;;;;;;;;;5100317;28;20404;-85
2023/08/16 10:00:48;;;;;;;4.95;4.10;;;;;;;;;;5100418;28;20874;-85
2023/08/16 10:03:15;;;;;;;4.70;3.78;;;;;;;;;;5100944;28;20441;-85
2023/08/16 10:05:41;;;;;;;6.80;3.85;;;;;;;;;;5098734;28;20496;-85
2023/08/16 10:08:09;;;;;;;5.43;3.95;;;;;;;;;;5082226;28;20395;-85
2023/08/16 10:10:35;;;;;;;3.90;3.53;;;;;;;;;;5099851;28;20386;-86
2023/08/16 10:13:01;;;;;;;4.03;3.35;;;;;;;;;;5085255;28;20380;-85
2023/08/16 10:15:35;;;;;;;4.97;3.78;;;;;;;;;;5081437;28;20382;-85
2023/08/16 10:18:02;;;;;;;4.30;3.90;;;;;;;;;;5097661;28;20850;-85
2023/08/16 10:20:32;;;;;;;3.73;3.43;;;;;;;;;;5099868;28;20409;-85
2023/08/16 10:22:58;;;;;;;5.05;3.60;;;;;;;;;;5099452;28;20847;-85
2023/08/16 10:25:25;;;;;;;4.45;3.60;;;;;;;;;;5100031;28;20479;-85
2023/08/16 10:27:54;;;;;;;3.60;3.30;;;;;;;;;;5100417;28;20384;-85
2023/08/16 10:30:23;;;;;;;3.92;3.53;;;;;;;;;;5097147;28;20385;-85
2023/08/16 10:33:04;;;;;;;4.05;3.65;;;;;;;;;;5089387;28;20386;-85
2023/08/16 10:35:31;;;;;;;3.67;3.25;;;;;;;;;;5097631;28;20417;-85
2023/08/16 10:37:57;;;;;;;5.20;3.50;;;;;;;;;;5080070;28;20376;-85
2023/08/16 10:40:24;;;;;;;4.68;3.25;;;;;;;;;;5082681;28;20788;-85
2023/08/16 10:42:57;;;;;;;3.88;3.47;;;;;;;;;;5092936;28;20436;-85
2023/08/16 10:45:34;;;;;;;5.25;3.45;;;;;;;;;;5092600;28;20390;-85
2023/08/16 10:48:09;;;;;;;3.70;3.25;;;;;;;;;;5085735;28;20722;-85
2023/08/16 10:50:35;;;;;;;3.30;3.00;;;;;;;;;;5093025;28;20374;-85
2023/08/16 10:53:01;;;;;;;4.70;2.90;;;;;;;;;;5080966;28;20426;-85
2023/08/16 10:55:27;;;;;;;3.47;3.13;;;;;;;;;;5092965;28;20390;-85
2023/08/16 10:57:54;;;;;;;4.43;2.97;;;;;;;;;;5097548;28;20389;-86
2023/08/16 11:00:20;;;;;;;3.60;2.80;;;;;;;;;;5099904;28;20410;-85
2023/08/16 11:02:49;;;;;;;3.55;2.95;;;;;;;;;;5100337;28;20378;-85
2023/08/16 11:05:18;;;;;;;3.40;2.95;;;;;;;;;;5101197;28;20378;-85
2023/08/16 11:07:44;;;;;;;3.55;3.10;;;;;;;;;;5095857;28;20905;-85
2023/08/16 11:10:10;;;;;;;3.80;2.93;;;;;;;;;;5088525;28;20390;-84
2023/08/16 11:12:36;;;;;;;2.97;2.73;;;;;;;;;;5078692;28;20394;-85
2023/08/16 11:15:03;;;;;;;5.20;3.00;;;;;;;;;;5096540;28;20439;-85
2023/08/16 11:17:29;;;;;;;4.03;2.97;;;;;;;;;;5101087;28;20398;-85
2023/08/16 11:19:56;;;;;;;4.63;2.83;;;;;;;;;;5085614;28;20853;-85
2023/08/16 11:22:22;;;;;;;3.00;2.70;;;;;;;;;;5093820;28;20431;-85
2023/08/16 11:24:49;;;;;;;3.30;2.65;;;;;;;;;;5092556;28;20397;-86
2023/08/16 11:27:24;;;;;;;3.10;2.80;;;;;;;;;;5094947;28;20439;-86
2023/08/16 11:29:59;;;;;;;2.63;2.42;;;;;;;;;;5091561;28;20382;-86
2023/08/16 11:32:36;;;;;;;3.08;2.60;;;;;;;;;;5095449;28;20384;-85
2023/08/16 11:35:06;;;;;;;3.60;2.28;;;;;;;;;;5083506;28;20403;-85
2023/08/16 11:37:32;;;;;;;3.03;2.33;;;;;;;;;;5099107;28;20738;-85
2023/08/16 11:39:59;;;;;;;3.60;2.57;;;;;;;;;;5095288;28;20928;-85
2023/08/16 11:42:26;;;;;;;3.73;2.00;;;;;;;;;;5081617;28;20391;-85
2023/08/16 11:44:52;;;;;;;3.30;2.28;;;;;;;;;;5090282;28;20382;-85
2023/08/16 11:47:18;;;;;;;3.22;2.15;;;;;;;;;;5085949;28;20422;-85
2023/08/16 11:49:44;;;;;;;2.20;2.00;;;;;;;;;;5091116;28;20383;-85
2023/08/16 11:52:10;;;;;;;4.00;2.10;;;;;;;;;;5080427;28;20386;-85
2023/08/16 11:54:37;;;;;;;2.03;1.83;;;;;;;;;;5078243;28;20389;-83
2023/08/16 11:57:03;;;;;;;2.57;1.80;;;;;;;;;;5073198;28;20846;-83
2023/08/16 11:59:31;;;;;;;2.20;2.00;;;;;;;;;;5091824;28;20441;-83
2023/08/16 12:01:57;;;;;;;2.60;2.05;;;;;;;;;;5089206;28;20415;-83
2023/08/16 12:04:24;;;;;;;3.07;2.00;;;;;;;;;;5096547;28;20457;-83
2023/08/16 12:06:50;;;;;;;2.55;2.10;;;;;;;;;;5082111;28;20412;-82
2023/08/16 12:09:17;;;;;;;2.35;1.90;;;;;;;;;;5089314;28;20437;-83
2023/08/16 12:11:43;;;;;;;2.00;1.60;;;;;;;;;;5096084;28;20389;-83
2023/08/16 12:14:10;;;;;;;2.20;2.00;;;;;;;;;;5078959;28;20443;-83
2023/08/16 12:16:36;;;;;;;2.53;1.90;;;;;;;;;;5078866;28;20957;-84
2023/08/16 12:19:02;;;;;;;2.78;2.20;;;;;;;;;;5078029;28;20849;-81
2023/08/16 12:21:28;;;;;;;4.13;2.03;;;;;;;;;;5091370;28;20377;-83
2023/08/16 12:23:54;;;;;;;2.20;1.80;;;;;;;;;;5093586;28;20434;-83
2023/08/16 12:26:20;;;;;;;2.15;1.80;;;;;;;;;;5090695;28;20414;-83
2023/08/16 12:28:46;;;;;;;2.03;1.80;;;;;;;;;;5098041;28;20405;-83
2023/08/16 12:31:12;;;;;;;2.65;1.90;;;;;;;;;;5098615;28;20378;-84
2023/08/16 12:33:40;;;;;;;3.47;2.20;;;;;;;;;;5083349;28;20376;-83
2023/08/16 12:36:06;;;;;;;2.67;2.10;;;;;;;;;;5085596;28;20389;-83
2023/08/16 12:38:32;;;;;;;2.30;2.10;;;;;;;;;;5084586;28;20392;-83
2023/08/16 12:40:58;;;;;;;2.45;2.10;;;;;;;;;;5077712;28;20379;-83
2023/08/16 12:43:24;;;;;;;2.08;1.83;;;;;;;;;;5089854;28;20774;-84
2023/08/16 12:45:50;;;;;;;2.20;2.00;;;;;;;;;;5094720;28;20796;-83
2023/08/16 12:48:17;;;;;;;2.30;2.03;;;;;;;;;;5087791;28;20396;-83
2023/08/16 12:50:43;;;;;;;2.37;1.90;;;;;;;;;;5097918;28;20430;-83
2023/08/16 12:53:09;;;;;;;3.10;2.20;;;;;;;;;;5092293;28;20386;-83
2023/08/16 12:55:35;;;;;;;2.45;2.15;;;;;;;;;;5084304;28;20388;-83
2023/08/16 12:58:01;;;;;;;2.83;2.08;;;;;;;;;;5077396;28;20394;-83
2023/08/16 13:00:30;;;;;;;2.10;1.90;;;;;;;;;;5077808;28;20818;-83
2023/08/16 13:02:57;;;;;;;2.05;1.85;;;;;;;;;;5096206;28;20381;-83
2023/08/16 13:05:25;;;;;;;2.70;1.90;;;;;;;;;;5098853;28;20782;-83
2023/08/16 13:07:51;;;;;;;2.60;1.90;;;;;;;;;;5084246;28;20412;-83
2023/08/16 13:10:17;;;;;;;2.20;2.00;;;;;;;;;;5089955;28;20454;-83
2023/08/16 13:12:43;;;;;;;3.15;2.25;;;;;;;;;;5083551;28;20411;-83
2023/08/16 13:15:09;;;;;;;2.20;2.00;;;;;;;;;;5077835;28;20411;-83
2023/08/16 13:17:35;;;;;;;2.83;1.90;;;;;;;;;;5080856;28;20413;-83
2023/08/16 13:20:02;;;;;;;2.90;2.10;;;;;;;;;;5089491;28;20412;-83
2023/08/16 13:22:29;;;;;;;4.07;1.88;;;;;;;;;;5096771;28;20412;-83
2023/08/16 13:24:55;;;;;;;2.03;1.90;;;;;;;;;;5097635;28;20416;-83
2023/08/16 13:27:21;;;;;;;2.92;2.10;;;;;;;;;;5096971;28;20446;-83
2023/08/16 13:29:47;;;;;;;2.45;1.88;;;;;;;;;;5096902;28;20847;-83
2023/08/16 13:32:13;;;;;;;2.92;1.83;;;;;;;;;;5082514;28;20429;-83
2023/08/16 13:34:39;;;;;;;2.65;2.00;;;;;;;;;;5098086;28;20374;-83
2023/08/16 13:37:05;;;;;;;2.28;2.00;;;;;;;;;;5085068;28;20446;-84
2023/08/16 13:39:31;;;;;;;2.30;2.10;;;;;;;;;;5090057;28;20414;-83
2023/08/16 13:41:57;;;;;;;2.40;2.00;;;;;;;;;;5088945;28;20392;-83
2023/08/16 13:44:24;;;;;;;3.20;1.98;;;;;;;;;;5083064;28;20937;-83
2023/08/16 13:46:50;;;;;;;2.07;1.90;;;;;;;;;;5084397;28;20412;-83
2023/08/16 13:49:16;;;;;;;2.40;1.98;;;;;;;;;;5080399;28;20448;-83
2023/08/16 13:51:42;;;;;;;2.80;2.00;;;;;;;;;;5097470;28;20461;-83
2023/08/16 13:54:08;;;;;;;2.65;1.83;;;;;;;;;;5082891;28;20741;-83
2023/08/16 13:56:34;;;;;;;1.92;1.83;;;;;;;;;;5088660;28;20376;-83
2023/08/16 13:59:00;;;;;;;2.17;1.88;;;;;;;;;;5078272;28;20741;-83
2023/08/16 14:01:26;;;;;;;2.10;1.90;;;;;;;;;;5077540;28;20419;-84
2023/08/16 14:03:52;;;;;;;2.50;2.03;;;;;;;;;;5077349;28;20384;-83
2023/08/16 14:06:18;;;;;;;3.03;2.15;;;;;;;;;;5095315;28;20493;-84
2023/08/16 14:08:44;;;;;;;2.10;1.88;;;;;;;;;;5076600;28;20402;-83
2023/08/16 14:11:10;;;;;;;2.65;1.77;;;;;;;;;;5076775;28;20379;-84
2023/08/16 14:13:36;;;;;;;2.42;1.83;;;;;;;;;;5077928;28;20386;-84
2023/08/16 14:16:04;;;;;;;2.00;1.80;;;;;;;;;;5080738;28;20395;-84
2023/08/16 14:18:30;;;;;;;2.83;1.77;;;;;;;;;;5078789;28;20837;-81
2023/08/16 14:20:56;;;;;;;3.05;1.95;;;;;;;;;;5095797;28;20384;-83
2023/08/16 14:23:22;;;;;;;2.37;1.80;;;;;;;;;;5085001;28;20392;-83
2023/08/16 14:25:52;;;;;;;3.13;1.80;;;;;;;;;;5086763;28;20382;-83
2023/08/16 14:28:18;;;;;;;3.25;1.88;;;;;;;;;;5099079;28;20401;-83
2023/08/16 14:30:46;;;;;;;2.00;1.50;;;;;;;;;;5082247;28;20453;-84
2023/08/16 14:33:16;;;;;;;2.00;1.80;;;;;;;;;;5091068;28;20448;-84
2023/08/16 14:35:42;;;;;;;2.47;1.70;;;;;;;;;;5096806;28;20394;-84
2023/08/16 14:38:10;;;;;;;3.85;1.90;;;;;;;;;;5075921;28;20412;-84